sensor_id;sensor_type;location;lat;lon;timestamp;P1;durP1;ratioP1;P2;durP2;ratioP2
27558;SDS011;15002;52.028;5.670;2023-09-30T00:00:22;10.10;;;5.68;;
27558;SDS011;15002;52.028;5.670;2023-09-30T00:02:48;13.45;;;4.93;;
27558;SDS011;15002;52.028;5.670;2023-09-30T00:05:14;14.55;;;5.30;;
27558;SDS011;15002;52.028;5.670;2023-09-30T00:07:40;18.33;;;5.95;;
27558;SDS011;15002;52.028;5.670;2023-09-30T00:10:06;13.90;;;5.63;;
27558;SDS011;15002;52.028;5.670;2023-09-30T00:12:32;14.15;;;6.10;;
27558;SDS011;15002;52.028;5.670;2023-09-30T00:14:57;14.93;;;5.82;;
27558;SDS011;15002;52.028;5.670;2023-09-30T00:17:23;16.33;;;6.20;;
27558;SDS011;15002;52.028;5.670;2023-09-30T00:19:49;14.68;;;5.28;;
27558;SDS011;15002;52.028;5.670;2023-09-30T00:22:14;17.90;;;6.18;;
27558;SDS011;15002;52.028;5.670;2023-09-30T00:24:40;13.65;;;6.03;;
27558;SDS011;15002;52.028;5.670;2023-09-30T00:27:05;23.45;;;9.57;;
27558;SDS011;15002;52.028;5.670;2023-09-30T00:29:31;16.50;;;8.23;;
27558;SDS011;15002;52.028;5.670;2023-09-30T00:31:57;17.85;;;7.50;;
27558;SDS011;15002;52.028;5.670;2023-09-30T00:34:22;14.73;;;7.15;;
27558;SDS011;15002;52.028;5.670;2023-09-30T00:36:48;17.63;;;7.20;;
27558;SDS011;15002;52.028;5.670;2023-09-30T00:39:13;20.50;;;7.88;;
27558;SDS011;15002;52.028;5.670;2023-09-30T00:41:39;15.57;;;7.78;;
27558;SDS011;15002;52.028;5.670;2023-09-30T00:44:05;21.35;;;8.32;;
27558;SDS011;15002;52.028;5.670;2023-09-30T00:46:32;16.02;;;7.30;;
27558;SDS011;15002;52.028;5.670;2023-09-30T00:49:00;18.63;;;8.20;;
27558;SDS011;15002;52.028;5.670;2023-09-30T00:51:27;19.10;;;8.40;;
27558;SDS011;15002;52.028;5.670;2023-09-30T00:53:54;20.75;;;9.05;;
27558;SDS011;15002;52.028;5.670;2023-09-30T00:56:25;18.77;;;8.52;;
27558;SDS011;15002;52.028;5.670;2023-09-30T00:58:53;15.60;;;8.85;;
27558;SDS011;15002;52.028;5.670;2023-09-30T01:01:19;12.80;;;7.90;;
27558;SDS011;15002;52.028;5.670;2023-09-30T01:03:45;16.58;;;7.90;;
27558;SDS011;15002;52.028;5.670;2023-09-30T01:06:12;19.63;;;8.23;;
27558;SDS011;15002;52.028;5.670;2023-09-30T01:08:38;19.42;;;9.18;;
27558;SDS011;15002;52.028;5.670;2023-09-30T01:11:04;17.95;;;8.52;;
27558;SDS011;15002;52.028;5.670;2023-09-30T01:13:34;19.70;;;8.40;;
27558;SDS011;15002;52.028;5.670;2023-09-30T01:16:06;18.10;;;8.30;;
27558;SDS011;15002;52.028;5.670;2023-09-30T01:18:37;15.82;;;8.15;;
27558;SDS011;15002;52.028;5.670;2023-09-30T01:21:04;17.08;;;8.27;;
27558;SDS011;15002;52.028;5.670;2023-09-30T01:23:31;21.00;;;9.00;;
27558;SDS011;15002;52.028;5.670;2023-09-30T01:26:00;19.77;;;8.48;;
27558;SDS011;15002;52.028;5.670;2023-09-30T01:28:28;20.73;;;8.57;;
27558;SDS011;15002;52.028;5.670;2023-09-30T01:30:54;18.23;;;8.63;;
27558;SDS011;15002;52.028;5.670;2023-09-30T01:33:19;16.88;;;8.07;;
27558;SDS011;15002;52.028;5.670;2023-09-30T01:35:45;14.45;;;7.95;;
27558;SDS011;15002;52.028;5.670;2023-09-30T01:38:11;17.63;;;8.73;;
27558;SDS011;15002;52.028;5.670;2023-09-30T01:40:36;18.20;;;8.82;;
27558;SDS011;15002;52.028;5.670;2023-09-30T01:43:03;18.70;;;8.80;;
27558;SDS011;15002;52.028;5.670;2023-09-30T01:45:29;21.50;;;7.95;;
27558;SDS011;15002;52.028;5.670;2023-09-30T01:47:54;16.77;;;7.78;;
27558;SDS011;15002;52.028;5.670;2023-09-30T01:50:20;15.52;;;7.90;;
27558;SDS011;15002;52.028;5.670;2023-09-30T01:52:45;17.50;;;8.35;;
27558;SDS011;15002;52.028;5.670;2023-09-30T01:55:11;15.60;;;8.25;;
27558;SDS011;15002;52.028;5.670;2023-09-30T01:57:37;15.15;;;7.82;;
27558;SDS011;15002;52.028;5.670;2023-09-30T02:00:03;19.02;;;8.90;;
27558;SDS011;15002;52.028;5.670;2023-09-30T02:02:30;18.33;;;9.27;;
27558;SDS011;15002;52.028;5.670;2023-09-30T02:04:56;15.52;;;8.05;;
27558;SDS011;15002;52.028;5.670;2023-09-30T02:07:22;17.55;;;8.65;;
27558;SDS011;15002;52.028;5.670;2023-09-30T02:09:47;17.55;;;9.15;;
27558;SDS011;15002;52.028;5.670;2023-09-30T02:12:14;14.82;;;8.10;;
27558;SDS011;15002;52.028;5.670;2023-09-30T02:14:39;20.70;;;9.43;;
27558;SDS011;15002;52.028;5.670;2023-09-30T02:17:05;19.48;;;9.00;;
27558;SDS011;15002;52.028;5.670;2023-09-30T02:19:30;16.98;;;9.02;;
27558;SDS011;15002;52.028;5.670;2023-09-30T02:21:58;19.60;;;8.82;;
27558;SDS011;15002;52.028;5.670;2023-09-30T02:24:24;18.02;;;9.07;;
27558;SDS011;15002;52.028;5.670;2023-09-30T02:26:50;19.73;;;9.00;;
27558;SDS011;15002;52.028;5.670;2023-09-30T02:29:16;18.10;;;9.27;;
27558;SDS011;15002;52.028;5.670;2023-09-30T02:31:41;21.10;;;10.50;;
27558;SDS011;15002;52.028;5.670;2023-09-30T02:34:07;19.95;;;9.25;;
27558;SDS011;15002;52.028;5.670;2023-09-30T02:36:33;15.15;;;9.77;;
27558;SDS011;15002;52.028;5.670;2023-09-30T02:39:04;18.30;;;10.40;;
27558;SDS011;15002;52.028;5.670;2023-09-30T02:41:30;22.83;;;11.73;;
27558;SDS011;15002;52.028;5.670;2023-09-30T02:43:56;22.10;;;10.52;;
27558;SDS011;15002;52.028;5.670;2023-09-30T02:46:21;21.60;;;10.27;;
27558;SDS011;15002;52.028;5.670;2023-09-30T02:48:47;19.65;;;10.02;;
27558;SDS011;15002;52.028;5.670;2023-09-30T02:51:12;20.42;;;9.82;;
27558;SDS011;15002;52.028;5.670;2023-09-30T02:53:38;22.33;;;11.38;;
27558;SDS011;15002;52.028;5.670;2023-09-30T02:56:04;18.98;;;10.77;;
27558;SDS011;15002;52.028;5.670;2023-09-30T02:58:30;19.55;;;11.23;;
27558;SDS011;15002;52.028;5.670;2023-09-30T03:00:56;17.60;;;10.88;;
27558;SDS011;15002;52.028;5.670;2023-09-30T03:03:21;17.38;;;11.07;;
27558;SDS011;15002;52.028;5.670;2023-09-30T03:05:47;21.77;;;11.80;;
27558;SDS011;15002;52.028;5.670;2023-09-30T03:08:15;19.40;;;10.73;;
27558;SDS011;15002;52.028;5.670;2023-09-30T03:10:41;25.75;;;11.57;;
27558;SDS011;15002;52.028;5.670;2023-09-30T03:13:07;21.35;;;11.90;;
27558;SDS011;15002;52.028;5.670;2023-09-30T03:15:34;23.60;;;11.20;;
27558;SDS011;15002;52.028;5.670;2023-09-30T03:18:00;21.67;;;11.85;;
27558;SDS011;15002;52.028;5.670;2023-09-30T03:20:26;24.73;;;12.20;;
27558;SDS011;15002;52.028;5.670;2023-09-30T03:22:52;24.42;;;12.63;;
27558;SDS011;15002;52.028;5.670;2023-09-30T03:25:18;22.17;;;11.15;;
27558;SDS011;15002;52.028;5.670;2023-09-30T03:27:45;20.60;;;11.88;;
27558;SDS011;15002;52.028;5.670;2023-09-30T03:30:11;20.83;;;11.90;;
27558;SDS011;15002;52.028;5.670;2023-09-30T03:32:38;24.23;;;13.05;;
27558;SDS011;15002;52.028;5.670;2023-09-30T03:35:07;21.83;;;12.25;;
27558;SDS011;15002;52.028;5.670;2023-09-30T03:40:02;21.05;;;11.52;;
27558;SDS011;15002;52.028;5.670;2023-09-30T03:42:37;20.60;;;13.30;;
27558;SDS011;15002;52.028;5.670;2023-09-30T03:45:04;24.20;;;12.23;;
27558;SDS011;15002;52.028;5.670;2023-09-30T03:47:32;24.52;;;12.98;;
27558;SDS011;15002;52.028;5.670;2023-09-30T03:49:59;22.60;;;13.35;;
27558;SDS011;15002;52.028;5.670;2023-09-30T03:52:25;20.88;;;13.02;;
27558;SDS011;15002;52.028;5.670;2023-09-30T03:54:51;23.73;;;13.10;;
27558;SDS011;15002;52.028;5.670;2023-09-30T03:57:18;23.17;;;13.32;;
27558;SDS011;15002;52.028;5.670;2023-09-30T03:59:44;24.88;;;14.05;;
27558;SDS011;15002;52.028;5.670;2023-09-30T04:02:11;25.88;;;14.10;;
27558;SDS011;15002;52.028;5.670;2023-09-30T04:04:37;23.13;;;13.43;;
27558;SDS011;15002;52.028;5.670;2023-09-30T04:07:02;24.00;;;14.60;;
27558;SDS011;15002;52.028;5.670;2023-09-30T04:09:31;24.67;;;13.88;;
27558;SDS011;15002;52.028;5.670;2023-09-30T04:11:57;24.58;;;14.32;;
27558;SDS011;15002;52.028;5.670;2023-09-30T04:14:23;25.10;;;13.95;;
27558;SDS011;15002;52.028;5.670;2023-09-30T04:16:50;27.02;;;15.15;;
27558;SDS011;15002;52.028;5.670;2023-09-30T04:19:15;26.08;;;14.88;;
27558;SDS011;15002;52.028;5.670;2023-09-30T04:21:41;26.67;;;15.13;;
27558;SDS011;15002;52.028;5.670;2023-09-30T04:24:08;27.23;;;14.77;;
27558;SDS011;15002;52.028;5.670;2023-09-30T04:26:35;24.88;;;14.25;;
27558;SDS011;15002;52.028;5.670;2023-09-30T04:29:02;23.92;;;15.30;;
27558;SDS011;15002;52.028;5.670;2023-09-30T04:31:35;26.30;;;15.63;;
27558;SDS011;15002;52.028;5.670;2023-09-30T04:34:04;28.70;;;15.00;;
27558;SDS011;15002;52.028;5.670;2023-09-30T04:36:30;28.35;;;15.30;;
27558;SDS011;15002;52.028;5.670;2023-09-30T04:38:56;26.58;;;15.20;;
27558;SDS011;15002;52.028;5.670;2023-09-30T04:41:26;25.50;;;16.02;;
27558;SDS011;15002;52.028;5.670;2023-09-30T04:43:51;26.13;;;15.60;;
27558;SDS011;15002;52.028;5.670;2023-09-30T04:46:17;25.08;;;15.55;;
27558;SDS011;15002;52.028;5.670;2023-09-30T04:48:48;23.73;;;15.83;;
27558;SDS011;15002;52.028;5.670;2023-09-30T04:51:14;25.05;;;16.30;;
27558;SDS011;15002;52.028;5.670;2023-09-30T04:53:43;25.27;;;15.65;;
27558;SDS011;15002;52.028;5.670;2023-09-30T04:56:10;25.35;;;15.52;;
27558;SDS011;15002;52.028;5.670;2023-09-30T04:58:35;24.17;;;15.77;;
27558;SDS011;15002;52.028;5.670;2023-09-30T05:01:01;28.70;;;15.50;;
27558;SDS011;15002;52.028;5.670;2023-09-30T05:03:26;26.42;;;16.45;;
27558;SDS011;15002;52.028;5.670;2023-09-30T05:05:52;29.88;;;16.25;;
27558;SDS011;15002;52.028;5.670;2023-09-30T05:08:20;28.38;;;15.75;;
27558;SDS011;15002;52.028;5.670;2023-09-30T05:10:47;26.40;;;16.13;;
27558;SDS011;15002;52.028;5.670;2023-09-30T05:13:13;27.77;;;15.82;;
27558;SDS011;15002;52.028;5.670;2023-09-30T05:15:38;31.27;;;17.30;;
27558;SDS011;15002;52.028;5.670;2023-09-30T05:18:06;27.50;;;16.52;;
27558;SDS011;15002;52.028;5.670;2023-09-30T05:20:34;28.50;;;16.42;;
27558;SDS011;15002;52.028;5.670;2023-09-30T05:23:02;26.70;;;16.63;;
27558;SDS011;15002;52.028;5.670;2023-09-30T05:25:28;24.90;;;16.38;;
27558;SDS011;15002;52.028;5.670;2023-09-30T05:27:53;27.88;;;15.98;;
27558;SDS011;15002;52.028;5.670;2023-09-30T05:30:19;24.02;;;16.27;;
27558;SDS011;15002;52.028;5.670;2023-09-30T05:32:45;24.17;;;16.48;;
27558;SDS011;15002;52.028;5.670;2023-09-30T05:35:12;26.42;;;17.08;;
27558;SDS011;15002;52.028;5.670;2023-09-30T05:37:39;25.65;;;16.98;;
27558;SDS011;15002;52.028;5.670;2023-09-30T05:40:05;24.85;;;16.67;;
27558;SDS011;15002;52.028;5.670;2023-09-30T05:42:41;33.17;;;16.80;;
27558;SDS011;15002;52.028;5.670;2023-09-30T05:45:10;21.65;;;16.42;;
27558;SDS011;15002;52.028;5.670;2023-09-30T05:47:38;30.45;;;16.38;;
27558;SDS011;15002;52.028;5.670;2023-09-30T05:50:04;28.25;;;17.40;;
27558;SDS011;15002;52.028;5.670;2023-09-30T05:52:32;29.88;;;17.40;;
27558;SDS011;15002;52.028;5.670;2023-09-30T05:54:58;28.65;;;18.10;;
27558;SDS011;15002;52.028;5.670;2023-09-30T05:57:26;28.63;;;17.20;;
27558;SDS011;15002;52.028;5.670;2023-09-30T05:59:52;28.77;;;18.08;;
27558;SDS011;15002;52.028;5.670;2023-09-30T06:02:18;25.10;;;17.52;;
27558;SDS011;15002;52.028;5.670;2023-09-30T06:04:44;28.52;;;16.92;;
27558;SDS011;15002;52.028;5.670;2023-09-30T06:07:11;27.48;;;17.20;;
27558;SDS011;15002;52.028;5.670;2023-09-30T06:09:37;28.27;;;16.95;;
27558;SDS011;15002;52.028;5.670;2023-09-30T06:12:03;31.10;;;18.05;;
27558;SDS011;15002;52.028;5.670;2023-09-30T06:14:32;33.05;;;18.05;;
27558;SDS011;15002;52.028;5.670;2023-09-30T06:16:58;39.42;;;18.27;;
27558;SDS011;15002;52.028;5.670;2023-09-30T06:19:24;38.00;;;18.08;;
27558;SDS011;15002;52.028;5.670;2023-09-30T06:21:51;34.05;;;17.23;;
27558;SDS011;15002;52.028;5.670;2023-09-30T06:24:17;27.27;;;17.77;;
27558;SDS011;15002;52.028;5.670;2023-09-30T06:26:45;31.73;;;18.20;;
27558;SDS011;15002;52.028;5.670;2023-09-30T06:29:10;31.48;;;16.42;;
27558;SDS011;15002;52.028;5.670;2023-09-30T06:31:36;26.38;;;17.60;;
27558;SDS011;15002;52.028;5.670;2023-09-30T06:34:02;25.60;;;17.60;;
27558;SDS011;15002;52.028;5.670;2023-09-30T06:36:29;25.95;;;17.23;;
27558;SDS011;15002;52.028;5.670;2023-09-30T06:38:55;26.95;;;17.23;;
27558;SDS011;15002;52.028;5.670;2023-09-30T06:41:20;28.13;;;17.40;;
27558;SDS011;15002;52.028;5.670;2023-09-30T06:43:46;28.05;;;17.20;;
27558;SDS011;15002;52.028;5.670;2023-09-30T06:46:12;27.98;;;16.60;;
27558;SDS011;15002;52.028;5.670;2023-09-30T06:48:38;29.55;;;16.90;;
27558;SDS011;15002;52.028;5.670;2023-09-30T06:51:05;27.92;;;16.58;;
27558;SDS011;15002;52.028;5.670;2023-09-30T06:53:31;24.80;;;15.30;;
27558;SDS011;15002;52.028;5.670;2023-09-30T06:55:56;21.67;;;14.88;;
27558;SDS011;15002;52.028;5.670;2023-09-30T06:58:22;20.60;;;14.27;;
27558;SDS011;15002;52.028;5.670;2023-09-30T07:00:51;27.75;;;13.75;;
27558;SDS011;15002;52.028;5.670;2023-09-30T07:03:20;22.27;;;14.30;;
27558;SDS011;15002;52.028;5.670;2023-09-30T07:05:45;22.42;;;14.45;;
27558;SDS011;15002;52.028;5.670;2023-09-30T07:08:14;18.02;;;13.55;;
27558;SDS011;15002;52.028;5.670;2023-09-30T07:10:41;22.00;;;13.52;;
27558;SDS011;15002;52.028;5.670;2023-09-30T07:13:07;20.08;;;14.57;;
27558;SDS011;15002;52.028;5.670;2023-09-30T07:15:33;22.33;;;14.10;;
27558;SDS011;15002;52.028;5.670;2023-09-30T07:17:59;21.75;;;14.85;;
27558;SDS011;15002;52.028;5.670;2023-09-30T07:20:24;22.58;;;13.95;;
27558;SDS011;15002;52.028;5.670;2023-09-30T07:22:51;23.25;;;14.18;;
27558;SDS011;15002;52.028;5.670;2023-09-30T07:25:17;25.27;;;15.82;;
27558;SDS011;15002;52.028;5.670;2023-09-30T07:27:43;27.30;;;15.32;;
27558;SDS011;15002;52.028;5.670;2023-09-30T07:30:10;20.95;;;15.00;;
27558;SDS011;15002;52.028;5.670;2023-09-30T07:32:37;24.05;;;16.13;;
27558;SDS011;15002;52.028;5.670;2023-09-30T07:35:03;24.35;;;15.75;;
27558;SDS011;15002;52.028;5.670;2023-09-30T07:37:29;25.58;;;16.05;;
27558;SDS011;15002;52.028;5.670;2023-09-30T07:39:54;24.85;;;15.95;;
27558;SDS011;15002;52.028;5.670;2023-09-30T07:42:20;25.27;;;15.38;;
27558;SDS011;15002;52.028;5.670;2023-09-30T07:44:47;24.38;;;15.80;;
27558;SDS011;15002;52.028;5.670;2023-09-30T07:47:14;25.98;;;15.63;;
27558;SDS011;15002;52.028;5.670;2023-09-30T07:49:40;22.88;;;15.65;;
27558;SDS011;15002;52.028;5.670;2023-09-30T07:52:05;23.92;;;16.17;;
27558;SDS011;15002;52.028;5.670;2023-09-30T07:54:31;22.45;;;15.65;;
27558;SDS011;15002;52.028;5.670;2023-09-30T07:56:57;22.92;;;16.17;;
27558;SDS011;15002;52.028;5.670;2023-09-30T07:59:24;23.00;;;15.63;;
27558;SDS011;15002;52.028;5.670;2023-09-30T08:01:50;23.65;;;15.18;;
27558;SDS011;15002;52.028;5.670;2023-09-30T08:04:16;26.13;;;15.90;;
27558;SDS011;15002;52.028;5.670;2023-09-30T08:06:43;24.45;;;15.27;;
27558;SDS011;15002;52.028;5.670;2023-09-30T08:09:08;25.45;;;15.88;;
27558;SDS011;15002;52.028;5.670;2023-09-30T08:11:36;25.38;;;16.98;;
27558;SDS011;15002;52.028;5.670;2023-09-30T08:14:05;24.77;;;16.80;;
27558;SDS011;15002;52.028;5.670;2023-09-30T08:16:38;24.30;;;16.10;;
27558;SDS011;15002;52.028;5.670;2023-09-30T08:19:03;26.65;;;16.42;;
27558;SDS011;15002;52.028;5.670;2023-09-30T08:21:30;26.30;;;17.35;;
27558;SDS011;15002;52.028;5.670;2023-09-30T08:23:56;21.25;;;15.07;;
27558;SDS011;15002;52.028;5.670;2023-09-30T08:26:22;23.15;;;16.33;;
27558;SDS011;15002;52.028;5.670;2023-09-30T08:28:48;23.77;;;16.20;;
27558;SDS011;15002;52.028;5.670;2023-09-30T08:31:14;25.77;;;17.80;;
27558;SDS011;15002;52.028;5.670;2023-09-30T08:33:40;30.00;;;17.70;;
27558;SDS011;15002;52.028;5.670;2023-09-30T08:36:08;32.45;;;18.20;;
27558;SDS011;15002;52.028;5.670;2023-09-30T08:38:35;28.10;;;19.10;;
27558;SDS011;15002;52.028;5.670;2023-09-30T08:41:01;28.40;;;18.23;;
27558;SDS011;15002;52.028;5.670;2023-09-30T08:43:27;26.75;;;19.05;;
27558;SDS011;15002;52.028;5.670;2023-09-30T08:45:55;25.33;;;18.67;;
27558;SDS011;15002;52.028;5.670;2023-09-30T08:48:26;24.80;;;18.02;;
27558;SDS011;15002;52.028;5.670;2023-09-30T08:50:53;28.52;;;17.88;;
27558;SDS011;15002;52.028;5.670;2023-09-30T08:53:19;24.98;;;17.52;;
27558;SDS011;15002;52.028;5.670;2023-09-30T08:55:46;27.00;;;17.98;;
27558;SDS011;15002;52.028;5.670;2023-09-30T08:58:12;30.70;;;16.98;;
27558;SDS011;15002;52.028;5.670;2023-09-30T09:00:38;27.05;;;17.67;;
27558;SDS011;15002;52.028;5.670;2023-09-30T09:03:06;25.92;;;16.80;;
27558;SDS011;15002;52.028;5.670;2023-09-30T09:05:32;23.17;;;16.55;;
27558;SDS011;15002;52.028;5.670;2023-09-30T09:07:58;26.10;;;16.67;;
27558;SDS011;15002;52.028;5.670;2023-09-30T09:10:24;21.85;;;15.63;;
27558;SDS011;15002;52.028;5.670;2023-09-30T09:12:56;22.27;;;16.25;;
27558;SDS011;15002;52.028;5.670;2023-09-30T09:15:26;28.23;;;16.17;;
27558;SDS011;15002;52.028;5.670;2023-09-30T09:17:55;25.45;;;16.73;;
27558;SDS011;15002;52.028;5.670;2023-09-30T09:20:22;21.20;;;14.35;;
27558;SDS011;15002;52.028;5.670;2023-09-30T09:22:50;22.30;;;14.35;;
27558;SDS011;15002;52.028;5.670;2023-09-30T09:25:24;25.58;;;14.82;;
27558;SDS011;15002;52.028;5.670;2023-09-30T09:27:50;21.33;;;14.30;;
27558;SDS011;15002;52.028;5.670;2023-09-30T09:30:20;21.05;;;13.93;;
27558;SDS011;15002;52.028;5.670;2023-09-30T09:33:00;20.60;;;14.50;;
27558;SDS011;15002;52.028;5.670;2023-09-30T09:35:28;24.55;;;14.80;;
27558;SDS011;15002;52.028;5.670;2023-09-30T09:37:59;23.00;;;14.30;;
27558;SDS011;15002;52.028;5.670;2023-09-30T09:40:29;17.95;;;13.25;;
27558;SDS011;15002;52.028;5.670;2023-09-30T09:42:59;22.73;;;14.02;;
27558;SDS011;15002;52.028;5.670;2023-09-30T09:45:29;22.70;;;13.52;;
27558;SDS011;15002;52.028;5.670;2023-09-30T09:47:58;21.33;;;14.18;;
27558;SDS011;15002;52.028;5.670;2023-09-30T09:50:23;23.95;;;14.00;;
27558;SDS011;15002;52.028;5.670;2023-09-30T09:52:53;19.67;;;13.68;;
27558;SDS011;15002;52.028;5.670;2023-09-30T09:55:23;18.60;;;13.15;;
27558;SDS011;15002;52.028;5.670;2023-09-30T09:57:49;23.42;;;13.48;;
27558;SDS011;15002;52.028;5.670;2023-09-30T10:00:16;24.17;;;13.75;;
27558;SDS011;15002;52.028;5.670;2023-09-30T10:02:46;24.08;;;13.48;;
27558;SDS011;15002;52.028;5.670;2023-09-30T10:05:12;21.55;;;13.10;;
27558;SDS011;15002;52.028;5.670;2023-09-30T10:07:42;20.00;;;13.50;;
27558;SDS011;15002;52.028;5.670;2023-09-30T10:10:18;21.50;;;14.23;;
27558;SDS011;15002;52.028;5.670;2023-09-30T10:12:45;20.85;;;13.18;;
27558;SDS011;15002;52.028;5.670;2023-09-30T10:20:40;19.90;;;11.98;;
27558;SDS011;15002;52.028;5.670;2023-09-30T10:25:48;22.75;;;11.73;;
27558;SDS011;15002;52.028;5.670;2023-09-30T10:28:34;19.65;;;11.38;;
27558;SDS011;15002;52.028;5.670;2023-09-30T10:38:53;15.48;;;10.35;;
27558;SDS011;15002;52.028;5.670;2023-09-30T10:46:47;18.90;;;8.43;;
27558;SDS011;15002;52.028;5.670;2023-09-30T10:49:36;21.23;;;9.32;;
27558;SDS011;15002;52.028;5.670;2023-09-30T10:52:03;14.38;;;8.90;;
27558;SDS011;15002;52.028;5.670;2023-09-30T10:54:32;14.55;;;8.73;;
27558;SDS011;15002;52.028;5.670;2023-09-30T10:56:59;15.68;;;8.35;;
27558;SDS011;15002;52.028;5.670;2023-09-30T10:59:26;15.80;;;8.00;;
27558;SDS011;15002;52.028;5.670;2023-09-30T11:01:55;14.30;;;7.55;;
27558;SDS011;15002;52.028;5.670;2023-09-30T11:04:21;12.65;;;5.20;;
27558;SDS011;15002;52.028;5.670;2023-09-30T11:06:47;17.30;;;6.22;;
27558;SDS011;15002;52.028;5.670;2023-09-30T11:09:16;11.68;;;5.30;;
27558;SDS011;15002;52.028;5.670;2023-09-30T11:11:44;14.20;;;5.43;;
27558;SDS011;15002;52.028;5.670;2023-09-30T11:16:45;12.95;;;4.93;;
27558;SDS011;15002;52.028;5.670;2023-09-30T11:19:12;11.32;;;4.50;;
27558;SDS011;15002;52.028;5.670;2023-09-30T11:21:41;13.38;;;4.60;;
27558;SDS011;15002;52.028;5.670;2023-09-30T11:24:10;11.13;;;3.80;;
27558;SDS011;15002;52.028;5.670;2023-09-30T11:26:37;11.02;;;4.03;;
27558;SDS011;15002;52.028;5.670;2023-09-30T11:29:09;9.88;;;4.32;;
27558;SDS011;15002;52.028;5.670;2023-09-30T11:31:41;11.20;;;4.30;;
27558;SDS011;15002;52.028;5.670;2023-09-30T11:34:08;12.15;;;4.70;;
27558;SDS011;15002;52.028;5.670;2023-09-30T11:36:38;10.88;;;4.10;;
27558;SDS011;15002;52.028;5.670;2023-09-30T11:39:07;12.30;;;4.20;;
27558;SDS011;15002;52.028;5.670;2023-09-30T11:41:34;10.10;;;3.63;;
27558;SDS011;15002;52.028;5.670;2023-09-30T11:44:07;12.68;;;4.88;;
27558;SDS011;15002;52.028;5.670;2023-09-30T11:46:51;13.48;;;4.43;;
27558;SDS011;15002;52.028;5.670;2023-09-30T11:52:19;10.63;;;4.63;;
27558;SDS011;15002;52.028;5.670;2023-09-30T11:54:51;10.93;;;3.45;;
27558;SDS011;15002;52.028;5.670;2023-09-30T11:57:18;10.25;;;3.65;;
27558;SDS011;15002;52.028;5.670;2023-09-30T11:59:45;12.18;;;4.00;;
27558;SDS011;15002;52.028;5.670;2023-09-30T12:02:12;13.90;;;4.60;;
27558;SDS011;15002;52.028;5.670;2023-09-30T12:04:39;10.50;;;3.63;;
27558;SDS011;15002;52.028;5.670;2023-09-30T12:07:09;11.73;;;3.55;;
27558;SDS011;15002;52.028;5.670;2023-09-30T12:09:35;11.07;;;3.08;;
27558;SDS011;15002;52.028;5.670;2023-09-30T12:12:04;13.35;;;3.50;;
27558;SDS011;15002;52.028;5.670;2023-09-30T12:14:34;12.38;;;3.83;;
27558;SDS011;15002;52.028;5.670;2023-09-30T12:17:00;8.82;;;3.63;;
27558;SDS011;15002;52.028;5.670;2023-09-30T12:19:26;11.27;;;4.15;;
27558;SDS011;15002;52.028;5.670;2023-09-30T12:21:51;13.05;;;3.47;;
27558;SDS011;15002;52.028;5.670;2023-09-30T12:24:17;9.05;;;2.67;;
27558;SDS011;15002;52.028;5.670;2023-09-30T12:26:49;8.02;;;2.42;;
27558;SDS011;15002;52.028;5.670;2023-09-30T12:29:19;8.05;;;3.13;;
27558;SDS011;15002;52.028;5.670;2023-09-30T12:31:47;11.80;;;3.33;;
27558;SDS011;15002;52.028;5.670;2023-09-30T12:34:14;10.45;;;2.88;;
27558;SDS011;15002;52.028;5.670;2023-09-30T12:36:40;10.63;;;3.08;;
27558;SDS011;15002;52.028;5.670;2023-09-30T12:39:07;12.25;;;3.38;;
27558;SDS011;15002;52.028;5.670;2023-09-30T12:41:37;11.65;;;3.25;;
27558;SDS011;15002;52.028;5.670;2023-09-30T12:44:04;10.65;;;2.95;;
27558;SDS011;15002;52.028;5.670;2023-09-30T12:46:29;12.50;;;2.67;;
27558;SDS011;15002;52.028;5.670;2023-09-30T12:48:55;6.47;;;2.40;;
27558;SDS011;15002;52.028;5.670;2023-09-30T12:51:22;7.72;;;3.00;;
27558;SDS011;15002;52.028;5.670;2023-09-30T12:53:48;8.45;;;2.72;;
27558;SDS011;15002;52.028;5.670;2023-09-30T12:56:14;10.93;;;2.72;;
27558;SDS011;15002;52.028;5.670;2023-09-30T12:58:40;10.55;;;3.30;;
27558;SDS011;15002;52.028;5.670;2023-09-30T13:01:06;10.95;;;3.33;;
27558;SDS011;15002;52.028;5.670;2023-09-30T13:03:32;8.98;;;2.95;;
27558;SDS011;15002;52.028;5.670;2023-09-30T13:05:58;9.00;;;3.00;;
27558;SDS011;15002;52.028;5.670;2023-09-30T13:08:23;8.38;;;2.80;;
27558;SDS011;15002;52.028;5.670;2023-09-30T13:10:49;10.23;;;3.45;;
27558;SDS011;15002;52.028;5.670;2023-09-30T13:13:15;10.45;;;3.50;;
27558;SDS011;15002;52.028;5.670;2023-09-30T13:15:41;10.70;;;3.10;;
27558;SDS011;15002;52.028;5.670;2023-09-30T13:18:07;14.40;;;3.97;;
27558;SDS011;15002;52.028;5.670;2023-09-30T13:20:33;14.30;;;4.28;;
27558;SDS011;15002;52.028;5.670;2023-09-30T13:22:58;12.15;;;4.22;;
27558;SDS011;15002;52.028;5.670;2023-09-30T13:25:24;10.70;;;3.38;;
27558;SDS011;15002;52.028;5.670;2023-09-30T13:27:51;9.80;;;4.00;;
27558;SDS011;15002;52.028;5.670;2023-09-30T13:30:17;11.38;;;3.60;;
27558;SDS011;15002;52.028;5.670;2023-09-30T13:32:42;7.57;;;3.28;;
27558;SDS011;15002;52.028;5.670;2023-09-30T13:35:09;11.05;;;3.60;;
27558;SDS011;15002;52.028;5.670;2023-09-30T13:37:35;9.10;;;3.50;;
27558;SDS011;15002;52.028;5.670;2023-09-30T13:40:02;9.15;;;3.95;;
27558;SDS011;15002;52.028;5.670;2023-09-30T13:42:33;11.20;;;4.20;;
27558;SDS011;15002;52.028;5.670;2023-09-30T13:45:00;11.07;;;4.00;;
27558;SDS011;15002;52.028;5.670;2023-09-30T13:47:26;9.25;;;3.50;;
27558;SDS011;15002;52.028;5.670;2023-09-30T13:49:51;11.88;;;3.95;;
27558;SDS011;15002;52.028;5.670;2023-09-30T13:52:17;11.85;;;4.00;;
27558;SDS011;15002;52.028;5.670;2023-09-30T13:54:43;9.77;;;4.05;;
27558;SDS011;15002;52.028;5.670;2023-09-30T13:57:09;10.27;;;3.60;;
27558;SDS011;15002;52.028;5.670;2023-09-30T13:59:35;15.52;;;4.53;;
27558;SDS011;15002;52.028;5.670;2023-09-30T14:02:01;11.55;;;4.63;;
27558;SDS011;15002;52.028;5.670;2023-09-30T14:04:29;8.18;;;3.92;;
27558;SDS011;15002;52.028;5.670;2023-09-30T14:06:57;10.25;;;3.85;;
27558;SDS011;15002;52.028;5.670;2023-09-30T14:09:25;12.88;;;3.72;;
27558;SDS011;15002;52.028;5.670;2023-09-30T14:11:51;12.15;;;4.28;;
27558;SDS011;15002;52.028;5.670;2023-09-30T14:14:17;13.23;;;4.30;;
27558;SDS011;15002;52.028;5.670;2023-09-30T14:16:43;10.63;;;4.03;;
27558;SDS011;15002;52.028;5.670;2023-09-30T14:19:08;10.82;;;3.70;;
27558;SDS011;15002;52.028;5.670;2023-09-30T14:21:34;9.73;;;3.88;;
27558;SDS011;15002;52.028;5.670;2023-09-30T14:24:00;10.93;;;3.83;;
27558;SDS011;15002;52.028;5.670;2023-09-30T14:26:27;10.63;;;3.60;;
27558;SDS011;15002;52.028;5.670;2023-09-30T14:28:53;12.27;;;4.00;;
27558;SDS011;15002;52.028;5.670;2023-09-30T14:31:19;8.30;;;3.83;;
27558;SDS011;15002;52.028;5.670;2023-09-30T14:33:44;8.02;;;3.90;;
27558;SDS011;15002;52.028;5.670;2023-09-30T14:36:10;9.15;;;4.32;;
27558;SDS011;15002;52.028;5.670;2023-09-30T14:38:36;14.52;;;5.25;;
27558;SDS011;15002;52.028;5.670;2023-09-30T14:41:06;11.60;;;4.47;;
27558;SDS011;15002;52.028;5.670;2023-09-30T14:43:32;11.05;;;4.28;;
27558;SDS011;15002;52.028;5.670;2023-09-30T14:46:01;12.15;;;4.80;;
27558;SDS011;15002;52.028;5.670;2023-09-30T14:48:28;11.07;;;5.03;;
27558;SDS011;15002;52.028;5.670;2023-09-30T14:50:54;13.38;;;4.65;;
27558;SDS011;15002;52.028;5.670;2023-09-30T14:53:20;11.63;;;4.95;;
27558;SDS011;15002;52.028;5.670;2023-09-30T14:55:46;13.07;;;5.13;;